createdAt,value
2024-02-29T00:01:20.972Z,9.36
2024-02-29T00:05:19.989Z,9.30
2024-02-29T00:09:17.980Z,9.28
2024-02-29T00:13:16.998Z,9.23
2024-02-29T00:17:14.928Z,9.18
2024-02-29T00:21:12.947Z,9.19
2024-02-29T00:25:10.998Z,9.19
2024-02-29T00:29:09.979Z,9.16
2024-02-29T00:33:07.942Z,9.17
2024-02-29T00:37:06.008Z,9.15
2024-02-29T00:41:03.903Z,9.11
2024-02-29T00:45:01.991Z,8.97
2024-02-29T00:48:59.919Z,8.94
2024-02-29T00:52:57.897Z,8.92
2024-02-29T00:56:56.015Z,8.97
2024-02-29T01:00:54.014Z,8.98
2024-02-29T01:04:51.884Z,8.98
2024-02-29T01:08:49.884Z,9.01
2024-02-29T01:12:49.906Z,9.06
2024-02-29T01:16:47.910Z,9.07
2024-02-29T01:20:45.912Z,9.03
2024-02-29T01:24:43.953Z,8.98
2024-02-29T01:28:42.203Z,8.91
2024-02-29T01:32:39.932Z,8.90
2024-02-29T01:36:37.922Z,8.89
2024-02-29T01:40:35.923Z,8.91
2024-02-29T01:44:34.860Z,8.89
2024-02-29T01:48:33.008Z,8.87
2024-02-29T01:52:31.849Z,8.83
2024-02-29T01:56:30.950Z,8.79
2024-02-29T02:00:29.920Z,8.78
2024-02-29T02:04:27.867Z,8.74
2024-02-29T02:08:27.867Z,8.70
2024-02-29T02:12:25.880Z,8.76
2024-02-29T02:16:26.906Z,8.88
2024-02-29T02:20:31.872Z,8.88
2024-02-29T02:24:31.838Z,8.89
2024-02-29T02:28:29.817Z,8.98
2024-02-29T02:32:27.845Z,8.96
2024-02-29T02:36:25.836Z,8.93
2024-02-29T02:40:23.835Z,8.92
2024-02-29T02:44:21.838Z,8.90
2024-02-29T02:48:19.792Z,8.89
2024-02-29T02:52:17.959Z,8.91
2024-02-29T02:56:15.802Z,8.96
2024-02-29T03:00:13.845Z,8.93
2024-02-29T03:04:11.913Z,8.86
2024-02-29T03:08:10.811Z,8.83
2024-02-29T03:12:08.844Z,8.80
2024-02-29T03:16:06.802Z,8.76
2024-02-29T03:20:04.791Z,8.73
2024-02-29T03:24:02.799Z,8.67
2024-02-29T03:28:00.817Z,8.61
2024-02-29T03:31:59.778Z,8.58
2024-02-29T03:35:57.735Z,8.58
2024-02-29T03:39:55.775Z,8.58
2024-02-29T03:43:53.747Z,8.60
2024-02-29T03:47:51.785Z,8.65
2024-02-29T03:51:49.821Z,8.63
2024-02-29T03:55:47.877Z,8.65
2024-02-29T03:59:45.708Z,8.66
2024-02-29T04:03:43.746Z,8.71
2024-02-29T04:07:42.738Z,8.72
2024-02-29T04:11:40.739Z,8.75
2024-02-29T04:15:38.737Z,8.78
2024-02-29T04:19:36.681Z,8.79
2024-02-29T04:23:34.779Z,8.76
2024-02-29T04:27:32.766Z,8.78
2024-02-29T04:31:30.685Z,8.85
2024-02-29T04:35:28.692Z,8.83
2024-02-29T04:39:26.846Z,8.71
2024-02-29T04:43:25.667Z,8.60
2024-02-29T04:47:23.677Z,8.61
2024-02-29T04:51:21.666Z,8.59
2024-02-29T04:55:19.741Z,8.58
2024-02-29T04:59:17.721Z,8.61
2024-02-29T05:03:15.706Z,8.67
2024-02-29T05:07:13.745Z,8.70
2024-02-29T05:11:11.674Z,8.75
2024-02-29T05:15:09.653Z,8.79
2024-02-29T05:19:07.660Z,8.86
2024-02-29T05:23:05.639Z,8.93
2024-02-29T05:27:03.609Z,9.03
2024-02-29T05:31:01.617Z,9.04
2024-02-29T05:35:00.626Z,9.00
2024-02-29T05:38:58.613Z,8.98
2024-02-29T05:42:56.708Z,8.98
2024-02-29T05:46:54.646Z,8.99
2024-02-29T05:50:52.639Z,8.99
2024-02-29T05:54:50.667Z,9.00
2024-02-29T05:58:48.577Z,9.04
2024-02-29T06:02:47.981Z,9.10
2024-02-29T06:06:46.638Z,9.10
2024-02-29T06:10:44.618Z,9.09
2024-02-29T06:14:42.588Z,9.07
2024-02-29T06:18:40.602Z,9.08
2024-02-29T06:22:38.566Z,9.10
2024-02-29T06:26:36.619Z,9.09
2024-02-29T06:30:39.577Z,9.08
2024-02-29T06:34:37.601Z,9.12
2024-02-29T06:38:35.525Z,9.16
2024-02-29T06:42:33.558Z,9.17
2024-02-29T06:46:31.555Z,9.21
2024-02-29T06:50:29.508Z,9.24
2024-02-29T06:54:27.557Z,9.28
2024-02-29T06:58:26.639Z,9.33
2024-02-29T07:02:04.125Z,9.40
2024-02-29T07:05:28.764Z,9.45
2024-02-29T07:08:53.669Z,9.52
2024-02-29T07:12:17.863Z,9.54
2024-02-29T07:15:41.863Z,9.49
2024-02-29T07:19:06.429Z,9.47
2024-02-29T07:22:30.490Z,9.50
2024-02-29T07:25:54.689Z,9.56
2024-02-29T07:29:18.909Z,9.59
2024-02-29T07:32:43.094Z,9.57
2024-02-29T07:36:07.558Z,9.49
2024-02-29T07:39:32.110Z,9.49
2024-02-29T07:42:56.208Z,9.49
2024-02-29T07:46:20.316Z,9.50
2024-02-29T07:49:44.323Z,9.52
2024-02-29T07:53:08.426Z,9.51
2024-02-29T07:56:32.677Z,9.47
2024-02-29T07:59:56.619Z,9.47
2024-02-29T08:03:20.566Z,9.59
2024-02-29T08:06:44.868Z,9.71
2024-02-29T08:10:09.901Z,9.78
2024-02-29T08:13:34.147Z,9.84
2024-02-29T08:16:58.306Z,9.88
2024-02-29T08:20:24.926Z,9.98
2024-02-29T08:23:48.897Z,10.06
2024-02-29T08:27:12.973Z,10.15
2024-02-29T08:30:36.960Z,10.11
2024-02-29T08:34:01.441Z,10.14
2024-02-29T08:37:25.585Z,10.14
2024-02-29T08:40:50.510Z,10.15
2024-02-29T08:44:17.138Z,10.21
2024-02-29T08:47:41.307Z,10.20
2024-02-29T08:51:05.646Z,10.19
2024-02-29T08:54:29.908Z,10.29
2024-02-29T08:57:54.269Z,10.42
2024-02-29T09:01:18.981Z,10.59
2024-02-29T09:04:43.206Z,10.75
2024-02-29T09:08:07.627Z,10.91
2024-02-29T09:11:31.703Z,11.07
2024-02-29T09:14:56.040Z,11.04
2024-02-29T09:18:20.682Z,11.03
2024-02-29T09:21:45.287Z,10.96
2024-02-29T09:25:09.824Z,10.94
2024-02-29T09:28:34.208Z,10.93
2024-02-29T09:31:58.118Z,10.96
2024-02-29T09:35:22.221Z,10.98
2024-02-29T09:38:46.388Z,10.99
2024-02-29T09:42:14.146Z,11.02
2024-02-29T09:45:43.016Z,11.09
2024-02-29T09:49:07.255Z,11.11
2024-02-29T09:52:35.155Z,11.06
2024-02-29T09:55:59.484Z,11.00
2024-02-29T09:59:25.084Z,10.93
2024-02-29T10:02:51.651Z,10.86
2024-02-29T10:06:17.238Z,10.84
2024-02-29T10:09:41.711Z,10.82
2024-02-29T10:13:07.429Z,10.78
2024-02-29T10:16:32.723Z,10.73
2024-02-29T10:19:57.109Z,10.73
2024-02-29T10:23:21.091Z,10.79
2024-02-29T10:26:45.066Z,10.90
2024-02-29T10:30:20.242Z,11.06
2024-02-29T10:33:49.720Z,11.05
2024-02-29T10:37:14.940Z,11.02
2024-02-29T10:40:39.915Z,11.01
2024-02-29T10:44:05.828Z,10.98
2024-02-29T10:47:35.400Z,10.98
2024-02-29T10:51:17.149Z,11.07
2024-02-29T10:54:48.215Z,11.10
2024-02-29T10:58:25.691Z,11.04
2024-02-29T11:01:50.149Z,11.06
2024-02-29T11:05:15.578Z,11.07
2024-02-29T11:08:40.005Z,10.99
2024-02-29T11:12:15.121Z,10.91
2024-02-29T11:15:45.234Z,10.85
2024-02-29T11:19:12.813Z,10.75
2024-02-29T11:22:37.880Z,10.67
2024-02-29T11:26:03.244Z,10.65
2024-02-29T11:29:27.158Z,10.65
2024-02-29T11:32:52.022Z,10.65
2024-02-29T11:36:16.666Z,10.64
2024-02-29T11:39:40.897Z,10.66
2024-02-29T11:43:08.811Z,10.61
2024-02-29T11:46:33.058Z,10.54
2024-02-29T11:50:01.192Z,10.57
2024-02-29T11:53:27.030Z,10.57
2024-02-29T11:56:51.990Z,10.51
2024-02-29T12:00:16.287Z,10.46
2024-02-29T12:03:41.383Z,10.45
2024-02-29T12:07:05.757Z,10.42
2024-02-29T12:10:30.344Z,10.40
2024-02-29T12:13:54.826Z,10.49
2024-02-29T12:17:20.083Z,10.62
2024-02-29T12:20:44.510Z,10.70
2024-02-29T12:24:09.099Z,10.68
2024-02-29T12:27:33.478Z,10.64
2024-02-29T12:30:57.474Z,10.56
2024-02-29T12:34:21.542Z,10.53
2024-02-29T12:37:45.489Z,10.51
2024-02-29T12:41:09.577Z,10.49
2024-02-29T12:44:33.957Z,10.50
2024-02-29T12:47:58.251Z,10.46
2024-02-29T12:51:22.330Z,10.43
2024-02-29T12:54:46.323Z,10.45
2024-02-29T12:58:14.024Z,10.46
2024-02-29T13:01:39.476Z,10.52
2024-02-29T13:05:04.413Z,10.62
2024-02-29T13:08:28.515Z,10.68
2024-02-29T13:11:52.652Z,10.61
2024-02-29T13:15:17.785Z,10.55
2024-02-29T13:18:42.077Z,10.55
2024-02-29T13:22:06.113Z,10.62
2024-02-29T13:25:30.238Z,10.69
2024-02-29T13:28:54.447Z,10.74
2024-02-29T13:32:19.658Z,10.75
2024-02-29T13:35:43.833Z,10.77
2024-02-29T13:39:10.750Z,10.77
2024-02-29T13:42:34.984Z,10.76
2024-02-29T13:45:59.080Z,10.76
2024-02-29T13:49:23.419Z,10.75
2024-02-29T13:52:47.490Z,10.73
2024-02-29T13:56:11.528Z,10.71
2024-02-29T13:59:35.814Z,10.73
2024-02-29T14:02:59.769Z,10.75
2024-02-29T14:06:23.994Z,10.74
2024-02-29T14:09:48.554Z,10.69
2024-02-29T14:13:13.280Z,10.68
2024-02-29T14:16:37.380Z,10.68
2024-02-29T14:20:01.351Z,10.71
2024-02-29T14:23:25.446Z,10.74
2024-02-29T14:26:49.773Z,10.75
2024-02-29T14:30:14.926Z,10.71
2024-02-29T14:33:59.012Z,10.73
2024-02-29T14:37:57.014Z,10.77
2024-02-29T14:41:55.032Z,10.76
2024-02-29T14:45:53.024Z,10.78
2024-02-29T14:49:50.990Z,10.78
2024-02-29T14:53:49.991Z,10.81
2024-02-29T14:57:47.965Z,10.84
2024-02-29T15:01:47.091Z,10.88
2024-02-29T15:05:45.053Z,10.94
2024-02-29T15:09:44.056Z,10.88
2024-02-29T15:13:41.974Z,10.78
2024-02-29T15:17:41.112Z,10.66
2024-02-29T15:21:39.014Z,10.62
2024-02-29T15:25:37.077Z,10.54
2024-02-29T15:29:34.950Z,10.49
2024-02-29T15:33:32.944Z,10.47
2024-02-29T15:37:30.969Z,10.46
2024-02-29T15:41:28.939Z,10.46
2024-02-29T15:45:26.908Z,10.52
2024-02-29T15:49:25.016Z,10.58
2024-02-29T15:53:22.943Z,10.61
2024-02-29T15:57:20.913Z,10.57
2024-02-29T16:01:18.975Z,10.52
2024-02-29T16:05:17.000Z,10.48
2024-02-29T16:09:14.923Z,10.45
2024-02-29T16:13:13.925Z,10.39
2024-02-29T16:17:12.894Z,10.32
2024-02-29T16:21:13.962Z,10.29
2024-02-29T16:25:11.903Z,10.24
2024-02-29T16:29:09.905Z,10.18
2024-02-29T16:33:07.915Z,10.16
2024-02-29T16:37:05.901Z,10.15
2024-02-29T16:41:03.849Z,10.16
2024-02-29T16:45:02.901Z,10.15
2024-02-29T16:49:01.971Z,10.14
2024-02-29T16:52:59.876Z,10.10
2024-02-29T16:56:58.862Z,10.09
2024-02-29T17:00:56.907Z,10.11
2024-02-29T17:04:54.908Z,10.09
2024-02-29T17:08:52.825Z,10.07
2024-02-29T17:12:44.084Z,10.06
2024-02-29T17:16:41.822Z,10.05
2024-02-29T17:20:39.890Z,10.03
2024-02-29T17:24:38.120Z,10.01
2024-02-29T17:28:35.786Z,9.97
2024-02-29T17:32:34.836Z,9.97
2024-02-29T17:36:32.798Z,9.94
2024-02-29T17:40:30.879Z,9.95
2024-02-29T17:44:28.774Z,9.95
2024-02-29T17:48:26.785Z,9.92
2024-02-29T17:52:24.807Z,9.92
2024-02-29T17:56:23.802Z,9.93
2024-02-29T18:00:21.755Z,9.95
2024-02-29T18:04:19.871Z,9.97
2024-02-29T18:08:17.767Z,9.99
2024-02-29T18:12:15.789Z,10.02
2024-02-29T18:16:13.876Z,10.03
2024-02-29T18:20:12.779Z,10.05
2024-02-29T18:24:10.750Z,10.07
2024-02-29T18:28:08.893Z,10.08
2024-02-29T18:32:06.756Z,10.10
2024-02-29T18:36:04.751Z,10.15
2024-02-29T18:40:02.792Z,10.15
2024-02-29T18:44:00.739Z,10.13
2024-02-29T18:47:58.752Z,10.13
2024-02-29T18:52:00.789Z,10.15
2024-02-29T18:55:58.704Z,10.14
2024-02-29T18:59:56.762Z,10.11
2024-02-29T19:03:54.727Z,10.13
2024-02-29T19:07:52.817Z,10.17
2024-02-29T19:11:53.962Z,10.18
2024-02-29T19:15:52.238Z,10.22
2024-02-29T19:19:49.701Z,10.24
2024-02-29T19:23:47.715Z,10.23
2024-02-29T19:27:45.738Z,10.21
2024-02-29T19:31:43.735Z,10.24
2024-02-29T19:35:41.706Z,10.27
2024-02-29T19:39:39.691Z,10.28
2024-02-29T19:43:37.623Z,10.30
2024-02-29T19:47:35.735Z,10.28
2024-02-29T19:51:33.639Z,10.27
2024-02-29T19:55:31.807Z,10.30
2024-02-29T19:59:29.836Z,10.27
2024-02-29T20:03:27.660Z,10.30
2024-02-29T20:07:25.775Z,10.33
2024-02-29T20:11:23.705Z,10.33
2024-02-29T20:15:21.631Z,10.32
2024-02-29T20:19:19.692Z,10.29
2024-02-29T20:23:17.649Z,10.24
2024-02-29T20:27:15.729Z,10.24
2024-02-29T20:31:14.654Z,10.23
2024-02-29T20:35:12.788Z,10.24
2024-02-29T20:39:10.641Z,10.26
2024-02-29T20:43:08.696Z,10.25
2024-02-29T20:47:06.613Z,10.23
2024-02-29T20:51:04.602Z,10.23
2024-02-29T20:55:02.620Z,10.24
2024-02-29T20:59:00.649Z,10.24
2024-02-29T21:02:58.840Z,10.26
2024-02-29T21:06:56.603Z,10.24
2024-02-29T21:10:55.616Z,10.22
2024-02-29T21:14:53.569Z,10.20
2024-02-29T21:18:51.584Z,10.21
2024-02-29T21:22:51.609Z,10.23
2024-02-29T21:26:49.507Z,10.22
2024-02-29T21:30:47.572Z,10.23
2024-02-29T21:34:45.569Z,10.26
2024-02-29T21:38:43.605Z,10.29
2024-02-29T21:42:41.517Z,10.34
2024-02-29T21:46:39.557Z,10.34
2024-02-29T21:50:37.537Z,10.27
2024-02-29T21:54:37.525Z,10.24
2024-02-29T21:58:37.550Z,10.24
2024-02-29T22:02:35.501Z,10.29
2024-02-29T22:06:33.483Z,10.28
2024-02-29T22:10:32.533Z,10.29
2024-02-29T22:14:30.492Z,10.29
2024-02-29T22:18:28.516Z,10.31
2024-02-29T22:22:26.489Z,10.32
2024-02-29T22:26:24.504Z,10.31
2024-02-29T22:30:22.484Z,10.32
2024-02-29T22:34:20.487Z,10.27
2024-02-29T22:38:18.456Z,10.21
2024-02-29T22:42:16.520Z,10.15
2024-02-29T22:46:14.443Z,10.16
2024-02-29T22:50:12.604Z,10.19
2024-02-29T22:54:10.461Z,10.22
2024-02-29T22:58:08.444Z,10.28
2024-02-29T23:06:23.128Z,10.06
2024-02-29T23:10:22.318Z,10.01
2024-02-29T23:14:20.134Z,9.98
2024-02-29T23:18:18.129Z,9.95
2024-02-29T23:22:16.279Z,9.89
2024-02-29T23:26:15.082Z,9.84
2024-02-29T23:30:18.100Z,9.75
2024-02-29T23:34:16.085Z,9.70
2024-02-29T23:38:14.102Z,9.70
2024-02-29T23:42:12.048Z,9.68
2024-02-29T23:46:10.139Z,9.71
2024-02-29T23:50:08.115Z,9.67
2024-02-29T23:54:06.097Z,9.67
2024-02-29T23:58:05.258Z,9.65
